sensor_id;sensor_type;location;lat;lon;timestamp;temperature;humidity
81140;SHT31;70624;51.978;5.656;2023-10-08T00:01:33;20.0;72.4
81140;SHT31;70624;51.978;5.656;2023-10-08T00:04:07;20.0;72.6
81140;SHT31;70624;51.978;5.656;2023-10-08T00:06:36;19.9;72.7
81140;SHT31;70624;51.978;5.656;2023-10-08T00:09:06;19.9;72.7
81140;SHT31;70624;51.978;5.656;2023-10-08T00:11:38;19.9;72.8
81140;SHT31;70624;51.978;5.656;2023-10-08T00:14:07;19.9;72.9
81140;SHT31;70624;51.978;5.656;2023-10-08T00:16:37;19.9;73.0
81140;SHT31;70624;51.978;5.656;2023-10-08T00:19:07;19.8;73.1
81140;SHT31;70624;51.978;5.656;2023-10-08T00:21:41;19.8;73.3
81140;SHT31;70624;51.978;5.656;2023-10-08T00:24:11;19.8;73.4
81140;SHT31;70624;51.978;5.656;2023-10-08T00:26:41;19.8;73.5
81140;SHT31;70624;51.978;5.656;2023-10-08T00:29:11;19.8;73.6
81140;SHT31;70624;51.978;5.656;2023-10-08T00:31:48;19.8;73.8
81140;SHT31;70624;51.978;5.656;2023-10-08T00:34:17;19.7;73.8
81140;SHT31;70624;51.978;5.656;2023-10-08T00:36:48;19.7;73.8
81140;SHT31;70624;51.978;5.656;2023-10-08T00:39:17;19.7;73.9
81140;SHT31;70624;51.978;5.656;2023-10-08T00:41:50;19.7;73.8
81140;SHT31;70624;51.978;5.656;2023-10-08T00:44:21;19.7;74.0
81140;SHT31;70624;51.978;5.656;2023-10-08T00:46:56;19.7;74.0
81140;SHT31;70624;51.978;5.656;2023-10-08T00:49:28;19.7;74.1
81140;SHT31;70624;51.978;5.656;2023-10-08T00:52:10;19.7;73.9
81140;SHT31;70624;51.978;5.656;2023-10-08T00:54:56;19.7;74.0
81140;SHT31;70624;51.978;5.656;2023-10-08T00:57:36;19.7;73.9
81140;SHT31;70624;51.978;5.656;2023-10-08T01:00:09;19.7;73.9
81140;SHT31;70624;51.978;5.656;2023-10-08T01:02:49;19.7;73.9
81140;SHT31;70624;51.978;5.656;2023-10-08T01:05:25;19.7;74.1
81140;SHT31;70624;51.978;5.656;2023-10-08T01:08:00;19.7;74.2
81140;SHT31;70624;51.978;5.656;2023-10-08T01:10:32;19.7;74.2
81140;SHT31;70624;51.978;5.656;2023-10-08T01:13:01;19.7;74.3
81140;SHT31;70624;51.978;5.656;2023-10-08T01:15:37;19.7;74.3
81140;SHT31;70624;51.978;5.656;2023-10-08T01:18:08;19.6;74.4
81140;SHT31;70624;51.978;5.656;2023-10-08T01:20:41;19.6;74.5
81140;SHT31;70624;51.978;5.656;2023-10-08T01:23:17;19.6;74.6
81140;SHT31;70624;51.978;5.656;2023-10-08T01:25:49;19.6;74.5
81140;SHT31;70624;51.978;5.656;2023-10-08T01:28:24;19.6;74.5
81140;SHT31;70624;51.978;5.656;2023-10-08T01:30:56;19.6;74.6
81140;SHT31;70624;51.978;5.656;2023-10-08T01:33:27;19.6;74.6
81140;SHT31;70624;51.978;5.656;2023-10-08T01:35:57;19.6;74.6
81140;SHT31;70624;51.978;5.656;2023-10-08T01:38:30;19.6;74.8
81140;SHT31;70624;51.978;5.656;2023-10-08T01:41:01;19.6;74.8
81140;SHT31;70624;51.978;5.656;2023-10-08T01:43:36;19.6;74.8
81140;SHT31;70624;51.978;5.656;2023-10-08T01:46:05;19.6;74.8
81140;SHT31;70624;51.978;5.656;2023-10-08T01:48:38;19.6;74.9
81140;SHT31;70624;51.978;5.656;2023-10-08T01:51:10;19.6;75.0
81140;SHT31;70624;51.978;5.656;2023-10-08T01:53:44;19.6;75.1
81140;SHT31;70624;51.978;5.656;2023-10-08T01:56:14;19.6;75.2
81140;SHT31;70624;51.978;5.656;2023-10-08T01:58:44;19.6;75.3
81140;SHT31;70624;51.978;5.656;2023-10-08T02:01:14;19.6;75.2
81140;SHT31;70624;51.978;5.656;2023-10-08T02:03:47;19.5;75.3
81140;SHT31;70624;51.978;5.656;2023-10-08T02:06:16;19.5;75.2
81140;SHT31;70624;51.978;5.656;2023-10-08T02:08:44;19.5;75.2
81140;SHT31;70624;51.978;5.656;2023-10-08T02:11:14;19.5;75.2
81140;SHT31;70624;51.978;5.656;2023-10-08T02:13:42;19.5;75.2
81140;SHT31;70624;51.978;5.656;2023-10-08T02:16:17;19.5;75.3
81140;SHT31;70624;51.978;5.656;2023-10-08T02:18:47;19.5;75.4
81140;SHT31;70624;51.978;5.656;2023-10-08T02:21:17;19.5;75.3
81140;SHT31;70624;51.978;5.656;2023-10-08T02:23:46;19.5;75.2
81140;SHT31;70624;51.978;5.656;2023-10-08T02:26:15;19.5;75.2
81140;SHT31;70624;51.978;5.656;2023-10-08T02:28:45;19.5;75.1
81140;SHT31;70624;51.978;5.656;2023-10-08T02:31:15;19.5;75.1
81140;SHT31;70624;51.978;5.656;2023-10-08T02:33:44;19.5;75.1
81140;SHT31;70624;51.978;5.656;2023-10-08T02:36:15;19.5;75.0
81140;SHT31;70624;51.978;5.656;2023-10-08T02:38:46;19.5;75.0
81140;SHT31;70624;51.978;5.656;2023-10-08T02:41:17;19.5;75.0
81140;SHT31;70624;51.978;5.656;2023-10-08T02:43:46;19.5;75.1
81140;SHT31;70624;51.978;5.656;2023-10-08T02:46:15;19.5;75.1
81140;SHT31;70624;51.978;5.656;2023-10-08T02:48:46;19.5;75.1
81140;SHT31;70624;51.978;5.656;2023-10-08T02:51:15;19.5;75.3
81140;SHT31;70624;51.978;5.656;2023-10-08T02:53:44;19.4;75.2
81140;SHT31;70624;51.978;5.656;2023-10-08T02:56:13;19.4;75.3
81140;SHT31;70624;51.978;5.656;2023-10-08T02:58:42;19.4;75.4
81140;SHT31;70624;51.978;5.656;2023-10-08T03:01:13;19.4;75.4
81140;SHT31;70624;51.978;5.656;2023-10-08T03:03:42;19.4;75.4
81140;SHT31;70624;51.978;5.656;2023-10-08T03:06:13;19.4;75.4
81140;SHT31;70624;51.978;5.656;2023-10-08T03:08:41;19.3;75.6
81140;SHT31;70624;51.978;5.656;2023-10-08T03:11:12;19.3;75.7
81140;SHT31;70624;51.978;5.656;2023-10-08T03:13:47;19.3;75.6
81140;SHT31;70624;51.978;5.656;2023-10-08T03:16:18;19.3;75.7
81140;SHT31;70624;51.978;5.656;2023-10-08T03:18:51;19.3;75.7
81140;SHT31;70624;51.978;5.656;2023-10-08T03:21:21;19.3;75.7
81140;SHT31;70624;51.978;5.656;2023-10-08T03:23:54;19.3;75.8
81140;SHT31;70624;51.978;5.656;2023-10-08T03:26:24;19.2;75.8
81140;SHT31;70624;51.978;5.656;2023-10-08T03:29:04;19.2;75.9
81140;SHT31;70624;51.978;5.656;2023-10-08T03:31:35;19.2;75.9
81140;SHT31;70624;51.978;5.656;2023-10-08T03:34:17;19.2;75.9
81140;SHT31;70624;51.978;5.656;2023-10-08T03:36:47;19.2;76.0
81140;SHT31;70624;51.978;5.656;2023-10-08T03:39:17;19.2;75.9
81140;SHT31;70624;51.978;5.656;2023-10-08T03:41:46;19.2;75.7
81140;SHT31;70624;51.978;5.656;2023-10-08T03:44:26;19.2;75.7
81140;SHT31;70624;51.978;5.656;2023-10-08T03:46:56;19.2;75.7
81140;SHT31;70624;51.978;5.656;2023-10-08T03:49:24;19.2;75.8
81140;SHT31;70624;51.978;5.656;2023-10-08T03:51:57;19.2;75.7
81140;SHT31;70624;51.978;5.656;2023-10-08T03:54:27;19.2;75.7
81140;SHT31;70624;51.978;5.656;2023-10-08T03:57:01;19.2;75.9
81140;SHT31;70624;51.978;5.656;2023-10-08T03:59:32;19.2;76.0
81140;SHT31;70624;51.978;5.656;2023-10-08T04:02:02;19.2;76.1
81140;SHT31;70624;51.978;5.656;2023-10-08T04:04:40;19.2;76.1
81140;SHT31;70624;51.978;5.656;2023-10-08T04:07:24;19.2;76.2
81140;SHT31;70624;51.978;5.656;2023-10-08T04:09:55;19.2;76.3
81140;SHT31;70624;51.978;5.656;2023-10-08T04:12:28;19.2;76.3
81140;SHT31;70624;51.978;5.656;2023-10-08T04:15:01;19.2;76.4
81140;SHT31;70624;51.978;5.656;2023-10-08T04:17:35;19.2;76.4
81140;SHT31;70624;51.978;5.656;2023-10-08T04:20:10;19.2;76.2
81140;SHT31;70624;51.978;5.656;2023-10-08T04:22:46;19.2;76.2
81140;SHT31;70624;51.978;5.656;2023-10-08T04:25:16;19.2;76.2
81140;SHT31;70624;51.978;5.656;2023-10-08T04:27:46;19.2;76.1
81140;SHT31;70624;51.978;5.656;2023-10-08T04:30:16;19.2;76.0
81140;SHT31;70624;51.978;5.656;2023-10-08T04:32:48;19.2;75.9
81140;SHT31;70624;51.978;5.656;2023-10-08T04:35:19;19.2;75.9
81140;SHT31;70624;51.978;5.656;2023-10-08T04:37:52;19.2;76.1
81140;SHT31;70624;51.978;5.656;2023-10-08T04:40:22;19.2;76.3
81140;SHT31;70624;51.978;5.656;2023-10-08T04:42:51;19.2;76.3
81140;SHT31;70624;51.978;5.656;2023-10-08T04:45:20;19.2;76.3
81140;SHT31;70624;51.978;5.656;2023-10-08T04:47:52;19.2;76.2
81140;SHT31;70624;51.978;5.656;2023-10-08T04:50:25;19.2;76.3
81140;SHT31;70624;51.978;5.656;2023-10-08T04:52:56;19.2;76.4
81140;SHT31;70624;51.978;5.656;2023-10-08T04:55:26;19.3;76.2
81140;SHT31;70624;51.978;5.656;2023-10-08T04:57:57;19.3;76.3
81140;SHT31;70624;51.978;5.656;2023-10-08T05:00:28;19.3;76.3
81140;SHT31;70624;51.978;5.656;2023-10-08T05:03:15;19.3;76.3
81140;SHT31;70624;51.978;5.656;2023-10-08T05:05:46;19.3;76.3
81140;SHT31;70624;51.978;5.656;2023-10-08T05:08:28;19.3;76.4
81140;SHT31;70624;51.978;5.656;2023-10-08T05:10:59;19.3;76.3
81140;SHT31;70624;51.978;5.656;2023-10-08T05:13:34;19.4;75.7
81140;SHT31;70624;51.978;5.656;2023-10-08T05:16:08;19.3;75.5
81140;SHT31;70624;51.978;5.656;2023-10-08T05:18:52;19.3;75.3
81140;SHT31;70624;51.978;5.656;2023-10-08T05:21:40;19.3;74.2
81140;SHT31;70624;51.978;5.656;2023-10-08T05:24:14;19.2;73.7
81140;SHT31;70624;51.978;5.656;2023-10-08T05:26:48;19.2;72.9
81140;SHT31;70624;51.978;5.656;2023-10-08T05:29:21;19.1;72.6
81140;SHT31;70624;51.978;5.656;2023-10-08T05:32:12;19.0;72.6
81140;SHT31;70624;51.978;5.656;2023-10-08T05:35:04;18.8;72.2
81140;SHT31;70624;51.978;5.656;2023-10-08T05:38:03;18.7;72.6
81140;SHT31;70624;51.978;5.656;2023-10-08T05:40:44;18.6;72.6
81140;SHT31;70624;51.978;5.656;2023-10-08T05:43:30;18.5;72.9
81140;SHT31;70624;51.978;5.656;2023-10-08T05:46:15;18.4;72.5
81140;SHT31;70624;51.978;5.656;2023-10-08T05:48:54;18.3;71.8
81140;SHT31;70624;51.978;5.656;2023-10-08T05:51:35;18.2;72.4
81140;SHT31;70624;51.978;5.656;2023-10-08T05:54:19;18.0;72.6
81140;SHT31;70624;51.978;5.656;2023-10-08T05:57:00;18.0;72.6
81140;SHT31;70624;51.978;5.656;2023-10-08T05:59:41;17.8;73.0
81140;SHT31;70624;51.978;5.656;2023-10-08T06:02:26;17.8;73.4
81140;SHT31;70624;51.978;5.656;2023-10-08T06:05:02;17.7;73.3
81140;SHT31;70624;51.978;5.656;2023-10-08T06:07:46;17.5;73.3
81140;SHT31;70624;51.978;5.656;2023-10-08T06:10:23;17.4;73.3
81140;SHT31;70624;51.978;5.656;2023-10-08T06:13:01;17.3;73.9
81140;SHT31;70624;51.978;5.656;2023-10-08T06:15:34;17.1;74.4
81140;SHT31;70624;51.978;5.656;2023-10-08T06:18:09;17.0;75.0
81140;SHT31;70624;51.978;5.656;2023-10-08T06:20:40;17.0;75.5
81140;SHT31;70624;51.978;5.656;2023-10-08T06:23:09;17.0;74.5
81140;SHT31;70624;51.978;5.656;2023-10-08T06:25:40;16.9;74.6
81140;SHT31;70624;51.978;5.656;2023-10-08T06:28:18;16.9;75.0
81140;SHT31;70624;51.978;5.656;2023-10-08T06:30:49;16.8;74.8
81140;SHT31;70624;51.978;5.656;2023-10-08T06:33:20;16.8;74.7
81140;SHT31;70624;51.978;5.656;2023-10-08T06:35:51;16.7;74.8
81140;SHT31;70624;51.978;5.656;2023-10-08T06:38:28;16.7;73.9
81140;SHT31;70624;51.978;5.656;2023-10-08T06:40:59;16.7;74.0
81140;SHT31;70624;51.978;5.656;2023-10-08T06:43:33;16.6;74.4
81140;SHT31;70624;51.978;5.656;2023-10-08T06:46:03;16.6;75.1
81140;SHT31;70624;51.978;5.656;2023-10-08T06:48:33;16.6;74.4
81140;SHT31;70624;51.978;5.656;2023-10-08T06:51:03;16.6;74.2
81140;SHT31;70624;51.978;5.656;2023-10-08T06:53:39;16.6;74.1
81140;SHT31;70624;51.978;5.656;2023-10-08T06:56:07;16.6;73.9
81140;SHT31;70624;51.978;5.656;2023-10-08T06:58:39;16.6;73.6
81140;SHT31;70624;51.978;5.656;2023-10-08T07:01:12;16.6;73.7
81140;SHT31;70624;51.978;5.656;2023-10-08T07:03:47;16.6;73.8
81140;SHT31;70624;51.978;5.656;2023-10-08T07:06:17;16.6;73.6
81140;SHT31;70624;51.978;5.656;2023-10-08T07:08:52;16.6;74.2
81140;SHT31;70624;51.978;5.656;2023-10-08T07:11:22;16.6;73.5
81140;SHT31;70624;51.978;5.656;2023-10-08T07:13:53;16.6;73.5
81140;SHT31;70624;51.978;5.656;2023-10-08T07:16:22;16.7;73.3
81140;SHT31;70624;51.978;5.656;2023-10-08T07:18:51;16.7;72.6
81140;SHT31;70624;51.978;5.656;2023-10-08T07:21:21;16.8;72.5
81140;SHT31;70624;51.978;5.656;2023-10-08T07:23:55;16.8;71.4
81140;SHT31;70624;51.978;5.656;2023-10-08T07:26:28;16.8;72.0
81140;SHT31;70624;51.978;5.656;2023-10-08T07:29:03;16.8;71.6
81140;SHT31;70624;51.978;5.656;2023-10-08T07:31:37;16.8;71.6
81140;SHT31;70624;51.978;5.656;2023-10-08T07:34:08;16.8;72.0
81140;SHT31;70624;51.978;5.656;2023-10-08T07:36:45;16.8;71.6
81140;SHT31;70624;51.978;5.656;2023-10-08T07:39:16;16.8;71.9
81140;SHT31;70624;51.978;5.656;2023-10-08T07:41:54;16.8;71.7
81140;SHT31;70624;51.978;5.656;2023-10-08T07:44:23;16.8;71.8
81140;SHT31;70624;51.978;5.656;2023-10-08T07:46:54;16.8;71.4
81140;SHT31;70624;51.978;5.656;2023-10-08T07:49:23;16.8;71.6
81140;SHT31;70624;51.978;5.656;2023-10-08T07:51:56;16.8;71.2
81140;SHT31;70624;51.978;5.656;2023-10-08T07:54:26;16.8;70.9
81140;SHT31;70624;51.978;5.656;2023-10-08T07:56:56;16.8;71.0
81140;SHT31;70624;51.978;5.656;2023-10-08T07:59:30;16.8;71.2
81140;SHT31;70624;51.978;5.656;2023-10-08T08:01:59;16.8;71.0
81140;SHT31;70624;51.978;5.656;2023-10-08T08:04:29;16.8;71.0
81140;SHT31;70624;51.978;5.656;2023-10-08T08:06:59;16.8;71.0
81140;SHT31;70624;51.978;5.656;2023-10-08T08:09:31;16.8;71.4
81140;SHT31;70624;51.978;5.656;2023-10-08T08:12:04;16.8;71.6
81140;SHT31;70624;51.978;5.656;2023-10-08T08:14:37;16.9;71.5
81140;SHT31;70624;51.978;5.656;2023-10-08T08:17:08;16.9;70.8
81140;SHT31;70624;51.978;5.656;2023-10-08T08:19:43;17.0;71.2
81140;SHT31;70624;51.978;5.656;2023-10-08T08:22:14;17.0;71.0
81140;SHT31;70624;51.978;5.656;2023-10-08T08:24:47;17.1;70.2
81140;SHT31;70624;51.978;5.656;2023-10-08T08:27:19;17.1;70.1
81140;SHT31;70624;51.978;5.656;2023-10-08T08:29:57;17.2;69.8
81140;SHT31;70624;51.978;5.656;2023-10-08T08:32:31;17.2;69.8
81140;SHT31;70624;51.978;5.656;2023-10-08T08:34:59;17.2;69.8
81140;SHT31;70624;51.978;5.656;2023-10-08T08:37:33;17.3;69.7
81140;SHT31;70624;51.978;5.656;2023-10-08T08:40:02;17.3;69.9
81140;SHT31;70624;51.978;5.656;2023-10-08T08:42:36;17.3;69.9
81140;SHT31;70624;51.978;5.656;2023-10-08T08:45:06;17.4;69.7
81140;SHT31;70624;51.978;5.656;2023-10-08T08:47:38;17.4;69.1
81140;SHT31;70624;51.978;5.656;2023-10-08T08:50:08;17.5;68.8
81140;SHT31;70624;51.978;5.656;2023-10-08T08:52:38;17.5;69.1
81140;SHT31;70624;51.978;5.656;2023-10-08T08:55:08;17.5;68.8
81140;SHT31;70624;51.978;5.656;2023-10-08T08:57:41;17.4;69.1
81140;SHT31;70624;51.978;5.656;2023-10-08T09:00:11;17.4;69.5
81140;SHT31;70624;51.978;5.656;2023-10-08T09:02:41;17.4;70.0
81140;SHT31;70624;51.978;5.656;2023-10-08T09:05:11;17.4;70.1
81140;SHT31;70624;51.978;5.656;2023-10-08T09:07:54;17.4;70.0
81140;SHT31;70624;51.978;5.656;2023-10-08T09:10:24;17.4;70.7
81140;SHT31;70624;51.978;5.656;2023-10-08T09:12:55;17.4;70.5
81140;SHT31;70624;51.978;5.656;2023-10-08T09:15:26;17.4;70.5
81140;SHT31;70624;51.978;5.656;2023-10-08T09:17:55;17.4;70.5
81140;SHT31;70624;51.978;5.656;2023-10-08T09:20:27;17.4;70.7
81140;SHT31;70624;51.978;5.656;2023-10-08T09:23:30;17.4;71.4
81140;SHT31;70624;51.978;5.656;2023-10-08T09:26:02;17.4;71.1
81140;SHT31;70624;51.978;5.656;2023-10-08T09:28:34;17.4;71.2
81140;SHT31;70624;51.978;5.656;2023-10-08T09:31:05;17.3;71.8
81140;SHT31;70624;51.978;5.656;2023-10-08T09:33:33;17.3;71.3
81140;SHT31;70624;51.978;5.656;2023-10-08T09:36:04;17.2;71.3
81140;SHT31;70624;51.978;5.656;2023-10-08T09:38:33;17.2;71.9
81140;SHT31;70624;51.978;5.656;2023-10-08T09:41:03;17.1;72.7
81140;SHT31;70624;51.978;5.656;2023-10-08T09:43:35;17.1;73.3
81140;SHT31;70624;51.978;5.656;2023-10-08T09:46:09;17.1;72.1
81140;SHT31;70624;51.978;5.656;2023-10-08T09:48:42;17.2;70.3
81140;SHT31;70624;51.978;5.656;2023-10-08T09:51:13;17.2;69.9
81140;SHT31;70624;51.978;5.656;2023-10-08T09:53:56;17.2;69.5
81140;SHT31;70624;51.978;5.656;2023-10-08T09:56:29;17.2;69.0
81140;SHT31;70624;51.978;5.656;2023-10-08T09:58:58;17.2;69.6
81140;SHT31;70624;51.978;5.656;2023-10-08T10:01:28;17.3;69.4
81140;SHT31;70624;51.978;5.656;2023-10-08T10:03:59;17.3;69.0
81140;SHT31;70624;51.978;5.656;2023-10-08T10:06:28;17.4;68.9
81140;SHT31;70624;51.978;5.656;2023-10-08T10:09:00;17.4;69.1
81140;SHT31;70624;51.978;5.656;2023-10-08T10:11:32;17.4;69.3
81140;SHT31;70624;51.978;5.656;2023-10-08T10:14:03;17.5;68.7
81140;SHT31;70624;51.978;5.656;2023-10-08T10:16:38;17.5;67.6
81140;SHT31;70624;51.978;5.656;2023-10-08T10:19:17;17.5;68.1
81140;SHT31;70624;51.978;5.656;2023-10-08T10:21:46;17.6;67.0
81140;SHT31;70624;51.978;5.656;2023-10-08T10:24:35;17.6;67.0
81140;SHT31;70624;51.978;5.656;2023-10-08T10:27:14;17.7;65.7
81140;SHT31;70624;51.978;5.656;2023-10-08T10:29:44;17.7;65.9
81140;SHT31;70624;51.978;5.656;2023-10-08T10:32:14;17.7;65.2
81140;SHT31;70624;51.978;5.656;2023-10-08T10:34:45;17.7;65.0
81140;SHT31;70624;51.978;5.656;2023-10-08T10:37:19;17.7;65.0
81140;SHT31;70624;51.978;5.656;2023-10-08T10:39:52;17.7;65.0
81140;SHT31;70624;51.978;5.656;2023-10-08T10:42:22;17.8;65.4
81140;SHT31;70624;51.978;5.656;2023-10-08T10:44:53;17.8;65.2
81140;SHT31;70624;51.978;5.656;2023-10-08T10:47:23;17.8;65.2
81140;SHT31;70624;51.978;5.656;2023-10-08T10:49:54;17.8;65.9
81140;SHT31;70624;51.978;5.656;2023-10-08T10:52:29;17.9;65.3
81140;SHT31;70624;51.978;5.656;2023-10-08T10:55:06;17.9;65.1
81140;SHT31;70624;51.978;5.656;2023-10-08T10:57:50;17.9;65.2
81140;SHT31;70624;51.978;5.656;2023-10-08T11:00:28;18.0;64.8
81140;SHT31;70624;51.978;5.656;2023-10-08T11:03:13;18.0;65.2
81140;SHT31;70624;51.978;5.656;2023-10-08T11:05:51;18.0;65.1
81140;SHT31;70624;51.978;5.656;2023-10-08T11:08:21;18.1;64.9
81140;SHT31;70624;51.978;5.656;2023-10-08T11:10:52;18.1;65.3
81140;SHT31;70624;51.978;5.656;2023-10-08T11:13:25;18.2;65.1
81140;SHT31;70624;51.978;5.656;2023-10-08T11:16:05;18.2;66.0
81140;SHT31;70624;51.978;5.656;2023-10-08T11:18:45;18.3;65.4
81140;SHT31;70624;51.978;5.656;2023-10-08T11:21:17;18.4;65.0
81140;SHT31;70624;51.978;5.656;2023-10-08T11:23:52;18.4;65.0
81140;SHT31;70624;51.978;5.656;2023-10-08T11:26:23;18.5;64.3
81140;SHT31;70624;51.978;5.656;2023-10-08T11:28:59;18.5;63.9
81140;SHT31;70624;51.978;5.656;2023-10-08T11:31:30;18.5;63.9
81140;SHT31;70624;51.978;5.656;2023-10-08T11:34:02;18.5;64.0
81140;SHT31;70624;51.978;5.656;2023-10-08T11:36:36;18.5;63.0
81140;SHT31;70624;51.978;5.656;2023-10-08T11:39:11;18.5;63.7
81140;SHT31;70624;51.978;5.656;2023-10-08T11:41:59;18.5;64.4
81140;SHT31;70624;51.978;5.656;2023-10-08T11:44:33;18.5;64.1
81140;SHT31;70624;51.978;5.656;2023-10-08T11:47:03;18.5;63.8
81140;SHT31;70624;51.978;5.656;2023-10-08T11:49:38;18.5;64.1
81140;SHT31;70624;51.978;5.656;2023-10-08T11:52:11;18.5;63.6
81140;SHT31;70624;51.978;5.656;2023-10-08T11:54:41;18.5;63.8
81140;SHT31;70624;51.978;5.656;2023-10-08T11:57:10;18.5;63.7
81140;SHT31;70624;51.978;5.656;2023-10-08T11:59:40;18.6;63.3
81140;SHT31;70624;51.978;5.656;2023-10-08T12:02:08;18.5;63.2
81140;SHT31;70624;51.978;5.656;2023-10-08T12:04:41;18.5;64.1
81140;SHT31;70624;51.978;5.656;2023-10-08T12:07:12;18.5;63.5
81140;SHT31;70624;51.978;5.656;2023-10-08T12:09:43;18.5;64.0
81140;SHT31;70624;51.978;5.656;2023-10-08T12:12:14;18.5;63.9
81140;SHT31;70624;51.978;5.656;2023-10-08T12:14:48;18.5;64.0
81140;SHT31;70624;51.978;5.656;2023-10-08T12:17:18;18.5;64.2
81140;SHT31;70624;51.978;5.656;2023-10-08T12:19:51;18.5;65.0
81140;SHT31;70624;51.978;5.656;2023-10-08T12:22:22;18.6;64.1
81140;SHT31;70624;51.978;5.656;2023-10-08T12:24:52;18.6;64.0
81140;SHT31;70624;51.978;5.656;2023-10-08T12:27:21;18.7;63.6
81140;SHT31;70624;51.978;5.656;2023-10-08T12:29:51;18.7;63.7
81140;SHT31;70624;51.978;5.656;2023-10-08T12:32:19;18.7;65.1
81140;SHT31;70624;51.978;5.656;2023-10-08T12:34:52;18.8;64.4
81140;SHT31;70624;51.978;5.656;2023-10-08T12:37:22;18.9;63.3
81140;SHT31;70624;51.978;5.656;2023-10-08T12:39:50;18.9;63.3
81140;SHT31;70624;51.978;5.656;2023-10-08T12:42:26;19.0;63.7
81140;SHT31;70624;51.978;5.656;2023-10-08T12:44:56;19.0;64.1
81140;SHT31;70624;51.978;5.656;2023-10-08T12:47:28;19.1;63.6
81140;SHT31;70624;51.978;5.656;2023-10-08T12:49:56;19.2;63.3
81140;SHT31;70624;51.978;5.656;2023-10-08T12:52:25;19.2;63.1
81140;SHT31;70624;51.978;5.656;2023-10-08T12:54:54;19.3;63.4
81140;SHT31;70624;51.978;5.656;2023-10-08T12:57:27;19.3;63.4
81140;SHT31;70624;51.978;5.656;2023-10-08T13:00:00;19.4;63.4
81140;SHT31;70624;51.978;5.656;2023-10-08T13:02:30;19.4;62.6
81140;SHT31;70624;51.978;5.656;2023-10-08T13:05:02;19.4;62.8
81140;SHT31;70624;51.978;5.656;2023-10-08T13:07:36;19.4;63.0
81140;SHT31;70624;51.978;5.656;2023-10-08T13:10:09;19.4;63.7
81140;SHT31;70624;51.978;5.656;2023-10-08T13:12:41;19.4;64.1
81140;SHT31;70624;51.978;5.656;2023-10-08T13:15:12;19.4;64.3
81140;SHT31;70624;51.978;5.656;2023-10-08T13:17:40;19.4;63.9
81140;SHT31;70624;51.978;5.656;2023-10-08T13:20:12;19.4;64.0
81140;SHT31;70624;51.978;5.656;2023-10-08T13:22:43;19.4;64.3
81140;SHT31;70624;51.978;5.656;2023-10-08T13:25:15;19.4;65.1
81140;SHT31;70624;51.978;5.656;2023-10-08T13:27:43;19.4;65.7
81140;SHT31;70624;51.978;5.656;2023-10-08T13:30:14;19.4;65.7
81140;SHT31;70624;51.978;5.656;2023-10-08T13:32:46;19.4;66.4
81140;SHT31;70624;51.978;5.656;2023-10-08T13:35:14;19.4;66.3
81140;SHT31;70624;51.978;5.656;2023-10-08T13:37:42;19.5;66.2
81140;SHT31;70624;51.978;5.656;2023-10-08T13:40:14;19.6;66.7
81140;SHT31;70624;51.978;5.656;2023-10-08T13:42:42;19.6;65.3
81140;SHT31;70624;51.978;5.656;2023-10-08T13:45:11;19.7;65.4
81140;SHT31;70624;51.978;5.656;2023-10-08T13:47:45;19.7;65.9
81140;SHT31;70624;51.978;5.656;2023-10-08T13:50:14;19.8;64.3
81140;SHT31;70624;51.978;5.656;2023-10-08T13:52:44;19.8;64.2
81140;SHT31;70624;51.978;5.656;2023-10-08T13:55:15;19.8;64.1
81140;SHT31;70624;51.978;5.656;2023-10-08T13:57:45;19.8;64.2
81140;SHT31;70624;51.978;5.656;2023-10-08T14:00:15;19.8;64.4
81140;SHT31;70624;51.978;5.656;2023-10-08T14:02:50;19.7;64.5
81140;SHT31;70624;51.978;5.656;2023-10-08T14:05:19;19.7;64.8
81140;SHT31;70624;51.978;5.656;2023-10-08T14:07:51;19.7;65.1
81140;SHT31;70624;51.978;5.656;2023-10-08T14:10:19;19.7;64.8
81140;SHT31;70624;51.978;5.656;2023-10-08T14:12:52;19.7;65.0
81140;SHT31;70624;51.978;5.656;2023-10-08T14:15:21;19.6;65.2
81140;SHT31;70624;51.978;5.656;2023-10-08T14:17:52;19.6;65.4
81140;SHT31;70624;51.978;5.656;2023-10-08T14:20:26;19.6;65.1
81140;SHT31;70624;51.978;5.656;2023-10-08T14:22:58;19.5;65.4
81140;SHT31;70624;51.978;5.656;2023-10-08T14:25:28;19.5;65.3
81140;SHT31;70624;51.978;5.656;2023-10-08T14:28:00;19.5;65.5
81140;SHT31;70624;51.978;5.656;2023-10-08T14:30:31;19.4;65.4
81140;SHT31;70624;51.978;5.656;2023-10-08T14:33:04;19.4;65.9
81140;SHT31;70624;51.978;5.656;2023-10-08T14:35:35;19.3;66.2
81140;SHT31;70624;51.978;5.656;2023-10-08T14:38:20;19.3;66.7
81140;SHT31;70624;51.978;5.656;2023-10-08T14:41:05;19.3;66.9
81140;SHT31;70624;51.978;5.656;2023-10-08T14:43:49;19.2;66.9
81140;SHT31;70624;51.978;5.656;2023-10-08T14:46:18;19.2;66.8
81140;SHT31;70624;51.978;5.656;2023-10-08T14:48:46;19.2;66.8
81140;SHT31;70624;51.978;5.656;2023-10-08T14:51:15;19.2;67.4
81140;SHT31;70624;51.978;5.656;2023-10-08T14:53:45;19.2;67.4
81140;SHT31;70624;51.978;5.656;2023-10-08T14:56:14;19.1;67.4
81140;SHT31;70624;51.978;5.656;2023-10-08T14:58:45;19.1;67.7
81140;SHT31;70624;51.978;5.656;2023-10-08T15:01:15;19.1;67.3
81140;SHT31;70624;51.978;5.656;2023-10-08T15:03:43;19.1;67.6
81140;SHT31;70624;51.978;5.656;2023-10-08T15:06:12;19.1;67.2
81140;SHT31;70624;51.978;5.656;2023-10-08T15:08:41;19.1;67.5
81140;SHT31;70624;51.978;5.656;2023-10-08T15:11:09;19.0;67.7
81140;SHT31;70624;51.978;5.656;2023-10-08T15:13:38;19.0;68.2
81140;SHT31;70624;51.978;5.656;2023-10-08T15:16:07;19.0;68.2
81140;SHT31;70624;51.978;5.656;2023-10-08T15:18:35;19.0;68.2
81140;SHT31;70624;51.978;5.656;2023-10-08T15:21:08;19.0;68.4
81140;SHT31;70624;51.978;5.656;2023-10-08T15:23:37;18.9;68.8
81140;SHT31;70624;51.978;5.656;2023-10-08T15:26:06;19.0;68.9
81140;SHT31;70624;51.978;5.656;2023-10-08T15:28:35;19.0;68.8
81140;SHT31;70624;51.978;5.656;2023-10-08T15:31:04;19.0;68.7
81140;SHT31;70624;51.978;5.656;2023-10-08T15:33:33;19.0;68.6
81140;SHT31;70624;51.978;5.656;2023-10-08T15:36:02;19.0;68.5
81140;SHT31;70624;51.978;5.656;2023-10-08T15:38:30;19.0;68.8
81140;SHT31;70624;51.978;5.656;2023-10-08T15:40:59;19.0;68.9
81140;SHT31;70624;51.978;5.656;2023-10-08T15:43:28;19.0;68.9
81140;SHT31;70624;51.978;5.656;2023-10-08T15:45:59;19.0;68.6
81140;SHT31;70624;51.978;5.656;2023-10-08T15:48:28;19.0;68.7
81140;SHT31;70624;51.978;5.656;2023-10-08T15:50:57;19.0;68.9
81140;SHT31;70624;51.978;5.656;2023-10-08T15:53:25;19.0;68.3
81140;SHT31;70624;51.978;5.656;2023-10-08T15:55:54;19.0;68.3
81140;SHT31;70624;51.978;5.656;2023-10-08T15:58:22;19.0;68.4
81140;SHT31;70624;51.978;5.656;2023-10-08T16:00:53;19.0;68.2
81140;SHT31;70624;51.978;5.656;2023-10-08T16:03:21;18.9;68.2
81140;SHT31;70624;51.978;5.656;2023-10-08T16:05:50;18.9;68.0
81140;SHT31;70624;51.978;5.656;2023-10-08T16:08:20;18.9;68.1
81140;SHT31;70624;51.978;5.656;2023-10-08T16:10:48;18.9;68.6
81140;SHT31;70624;51.978;5.656;2023-10-08T16:13:17;18.9;68.3
81140;SHT31;70624;51.978;5.656;2023-10-08T16:15:45;18.8;68.3
81140;SHT31;70624;51.978;5.656;2023-10-08T16:18:14;18.8;68.4
81140;SHT31;70624;51.978;5.656;2023-10-08T16:20:44;18.8;68.0
81140;SHT31;70624;51.978;5.656;2023-10-08T16:23:13;18.7;68.3
81140;SHT31;70624;51.978;5.656;2023-10-08T16:25:43;18.7;68.4
81140;SHT31;70624;51.978;5.656;2023-10-08T16:28:15;18.7;68.7
81140;SHT31;70624;51.978;5.656;2023-10-08T16:30:46;18.6;68.7
81140;SHT31;70624;51.978;5.656;2023-10-08T16:33:20;18.6;68.9
81140;SHT31;70624;51.978;5.656;2023-10-08T16:35:50;18.5;68.7